sensor_id;sensor_type;location;lat;lon;timestamp;temperature;humidity
40340;DHT22;26044;50.864;20.658;2022-09-28T00:00:58;11.20;99.90
40340;DHT22;26044;50.864;20.658;2022-09-28T00:03:25;11.10;99.90
40340;DHT22;26044;50.864;20.658;2022-09-28T00:06:03;11.10;99.90
40340;DHT22;26044;50.864;20.658;2022-09-28T00:08:30;11.20;99.90
40340;DHT22;26044;50.864;20.658;2022-09-28T00:10:57;11.10;99.90
40340;DHT22;26044;50.864;20.658;2022-09-28T00:13:24;11.10;99.90
40340;DHT22;26044;50.864;20.658;2022-09-28T00:16:03;11.20;99.90
40340;DHT22;26044;50.864;20.658;2022-09-28T00:18:30;11.20;99.90
40340;DHT22;26044;50.864;20.658;2022-09-28T00:21:07;11.10;99.90
40340;DHT22;26044;50.864;20.658;2022-09-28T00:23:35;11.10;99.90
40340;DHT22;26044;50.864;20.658;2022-09-28T00:26:26;11.10;99.90
40340;DHT22;26044;50.864;20.658;2022-09-28T00:28:55;11.20;99.90
40340;DHT22;26044;50.864;20.658;2022-09-28T00:31:24;11.20;99.90
40340;DHT22;26044;50.864;20.658;2022-09-28T00:33:52;11.20;99.90
40340;DHT22;26044;50.864;20.658;2022-09-28T00:36:21;11.20;99.90
40340;DHT22;26044;50.864;20.658;2022-09-28T00:38:48;11.20;99.90
40340;DHT22;26044;50.864;20.658;2022-09-28T00:41:15;11.20;99.90
40340;DHT22;26044;50.864;20.658;2022-09-28T00:43:42;11.20;99.90
40340;DHT22;26044;50.864;20.658;2022-09-28T00:46:16;11.20;99.90
40340;DHT22;26044;50.864;20.658;2022-09-28T00:49:10;11.20;99.90
40340;DHT22;26044;50.864;20.658;2022-09-28T00:51:41;11.20;99.90
40340;DHT22;26044;50.864;20.658;2022-09-28T00:54:09;11.10;99.90
40340;DHT22;26044;50.864;20.658;2022-09-28T00:56:39;11.20;99.90
40340;DHT22;26044;50.864;20.658;2022-09-28T00:59:08;11.20;99.90
40340;DHT22;26044;50.864;20.658;2022-09-28T01:01:35;11.20;99.90
40340;DHT22;26044;50.864;20.658;2022-09-28T01:04:03;11.20;99.90
40340;DHT22;26044;50.864;20.658;2022-09-28T01:06:33;11.20;99.90
40340;DHT22;26044;50.864;20.658;2022-09-28T01:09:06;11.20;99.90
40340;DHT22;26044;50.864;20.658;2022-09-28T01:11:37;11.20;99.90
40340;DHT22;26044;50.864;20.658;2022-09-28T01:14:10;11.20;99.90
40340;DHT22;26044;50.864;20.658;2022-09-28T01:16:49;11.20;99.90
40340;DHT22;26044;50.864;20.658;2022-09-28T01:22:27;11.10;99.90
40340;DHT22;26044;50.864;20.658;2022-09-28T01:25:10;11.10;99.90
40340;DHT22;26044;50.864;20.658;2022-09-28T01:30:17;11.10;99.90
40340;DHT22;26044;50.864;20.658;2022-09-28T01:32:54;11.10;99.90
40340;DHT22;26044;50.864;20.658;2022-09-28T01:35:39;11.10;99.90
40340;DHT22;26044;50.864;20.658;2022-09-28T01:38:09;11.10;99.90
40340;DHT22;26044;50.864;20.658;2022-09-28T01:40:39;11.10;99.90
40340;DHT22;26044;50.864;20.658;2022-09-28T01:43:25;11.00;99.90
40340;DHT22;26044;50.864;20.658;2022-09-28T01:45:59;11.00;99.90
40340;DHT22;26044;50.864;20.658;2022-09-28T01:48:47;11.00;99.90
40340;DHT22;26044;50.864;20.658;2022-09-28T01:51:20;10.90;99.90
40340;DHT22;26044;50.864;20.658;2022-09-28T01:53:52;10.90;99.90
40340;DHT22;26044;50.864;20.658;2022-09-28T01:56:45;10.80;99.90
40340;DHT22;26044;50.864;20.658;2022-09-28T01:59:24;10.80;99.90
40340;DHT22;26044;50.864;20.658;2022-09-28T02:01:58;10.80;99.90
40340;DHT22;26044;50.864;20.658;2022-09-28T02:04:41;10.80;99.90
40340;DHT22;26044;50.864;20.658;2022-09-28T02:07:19;10.80;99.90
40340;DHT22;26044;50.864;20.658;2022-09-28T02:09:54;10.80;99.90
40340;DHT22;26044;50.864;20.658;2022-09-28T02:12:34;10.80;99.90
40340;DHT22;26044;50.864;20.658;2022-09-28T02:15:22;10.80;99.90
40340;DHT22;26044;50.864;20.658;2022-09-28T02:17:52;10.80;99.90
40340;DHT22;26044;50.864;20.658;2022-09-28T02:20:20;10.70;99.90
40340;DHT22;26044;50.864;20.658;2022-09-28T02:22:52;10.70;99.90
40340;DHT22;26044;50.864;20.658;2022-09-28T02:25:33;10.60;99.90
40340;DHT22;26044;50.864;20.658;2022-09-28T02:28:07;10.70;99.90
40340;DHT22;26044;50.864;20.658;2022-09-28T02:30:37;10.60;99.90
40340;DHT22;26044;50.864;20.658;2022-09-28T02:33:11;10.60;99.90
40340;DHT22;26044;50.864;20.658;2022-09-28T02:35:40;10.60;99.90
40340;DHT22;26044;50.864;20.658;2022-09-28T02:38:09;10.60;99.90
40340;DHT22;26044;50.864;20.658;2022-09-28T02:40:37;10.60;99.90
40340;DHT22;26044;50.864;20.658;2022-09-28T02:43:23;10.60;99.90
40340;DHT22;26044;50.864;20.658;2022-09-28T02:46:09;10.50;99.90
40340;DHT22;26044;50.864;20.658;2022-09-28T02:48:47;10.60;99.90
40340;DHT22;26044;50.864;20.658;2022-09-28T02:54:44;10.50;99.90
40340;DHT22;26044;50.864;20.658;2022-09-28T02:57:34;10.40;99.90
40340;DHT22;26044;50.864;20.658;2022-09-28T03:00:07;10.40;99.90
40340;DHT22;26044;50.864;20.658;2022-09-28T03:08:06;10.40;99.90
40340;DHT22;26044;50.864;20.658;2022-09-28T03:10:42;10.40;99.90
40340;DHT22;26044;50.864;20.658;2022-09-28T03:13:11;10.40;99.90
40340;DHT22;26044;50.864;20.658;2022-09-28T03:15:38;10.30;99.90
40340;DHT22;26044;50.864;20.658;2022-09-28T03:18:11;10.30;99.90
40340;DHT22;26044;50.864;20.658;2022-09-28T03:20:38;10.30;99.90
40340;DHT22;26044;50.864;20.658;2022-09-28T03:23:05;10.30;99.90
40340;DHT22;26044;50.864;20.658;2022-09-28T03:25:50;10.30;99.90
40340;DHT22;26044;50.864;20.658;2022-09-28T03:28:16;10.40;99.90
40340;DHT22;26044;50.864;20.658;2022-09-28T03:30:43;10.40;99.90
40340;DHT22;26044;50.864;20.658;2022-09-28T03:33:10;10.30;99.90
40340;DHT22;26044;50.864;20.658;2022-09-28T03:35:37;10.30;99.90
40340;DHT22;26044;50.864;20.658;2022-09-28T03:38:04;10.30;99.90
40340;DHT22;26044;50.864;20.658;2022-09-28T03:40:31;10.30;99.90
40340;DHT22;26044;50.864;20.658;2022-09-28T03:42:59;10.20;99.90
40340;DHT22;26044;50.864;20.658;2022-09-28T03:45:26;10.20;99.90
40340;DHT22;26044;50.864;20.658;2022-09-28T03:47:53;10.20;99.90
40340;DHT22;26044;50.864;20.658;2022-09-28T03:50:20;10.20;99.90
40340;DHT22;26044;50.864;20.658;2022-09-28T03:52:47;10.20;99.90
40340;DHT22;26044;50.864;20.658;2022-09-28T03:55:15;10.10;99.90
40340;DHT22;26044;50.864;20.658;2022-09-28T03:57:42;10.10;99.90
40340;DHT22;26044;50.864;20.658;2022-09-28T04:00:10;10.20;99.90
40340;DHT22;26044;50.864;20.658;2022-09-28T04:02:36;10.20;99.90
40340;DHT22;26044;50.864;20.658;2022-09-28T04:05:04;10.20;99.90
40340;DHT22;26044;50.864;20.658;2022-09-28T04:07:31;10.20;99.90
40340;DHT22;26044;50.864;20.658;2022-09-28T04:09:58;10.20;99.90
40340;DHT22;26044;50.864;20.658;2022-09-28T04:12:25;10.20;99.90
40340;DHT22;26044;50.864;20.658;2022-09-28T04:14:52;10.10;99.90
40340;DHT22;26044;50.864;20.658;2022-09-28T04:17:20;10.10;99.90
40340;DHT22;26044;50.864;20.658;2022-09-28T04:19:47;10.00;99.90
40340;DHT22;26044;50.864;20.658;2022-09-28T04:22:14;9.90;99.90
40340;DHT22;26044;50.864;20.658;2022-09-28T04:24:41;10.00;99.90
40340;DHT22;26044;50.864;20.658;2022-09-28T04:27:10;9.90;99.90
40340;DHT22;26044;50.864;20.658;2022-09-28T04:29:57;9.80;99.90
40340;DHT22;26044;50.864;20.658;2022-09-28T04:32:24;9.70;99.90
40340;DHT22;26044;50.864;20.658;2022-09-28T04:34:51;9.70;99.90
40340;DHT22;26044;50.864;20.658;2022-09-28T04:37:18;9.60;99.90
40340;DHT22;26044;50.864;20.658;2022-09-28T04:39:45;9.50;99.90
40340;DHT22;26044;50.864;20.658;2022-09-28T04:42:14;9.40;99.90
40340;DHT22;26044;50.864;20.658;2022-09-28T04:44:41;9.40;99.90
40340;DHT22;26044;50.864;20.658;2022-09-28T04:47:08;9.30;99.90
40340;DHT22;26044;50.864;20.658;2022-09-28T04:49:35;9.30;99.90
40340;DHT22;26044;50.864;20.658;2022-09-28T04:52:04;9.20;99.90
40340;DHT22;26044;50.864;20.658;2022-09-28T04:54:32;9.20;99.90
40340;DHT22;26044;50.864;20.658;2022-09-28T04:57:00;9.10;99.90
40340;DHT22;26044;50.864;20.658;2022-09-28T04:59:29;9.10;99.90
40340;DHT22;26044;50.864;20.658;2022-09-28T05:01:55;9.10;99.90
40340;DHT22;26044;50.864;20.658;2022-09-28T05:04:24;9.10;99.90
40340;DHT22;26044;50.864;20.658;2022-09-28T05:06:53;9.20;99.90
40340;DHT22;26044;50.864;20.658;2022-09-28T05:09:19;9.20;99.90
40340;DHT22;26044;50.864;20.658;2022-09-28T05:11:49;9.20;99.90
40340;DHT22;26044;50.864;20.658;2022-09-28T05:14:15;9.30;99.90
40340;DHT22;26044;50.864;20.658;2022-09-28T05:16:43;9.30;99.90
40340;DHT22;26044;50.864;20.658;2022-09-28T05:19:10;9.40;99.90
40340;DHT22;26044;50.864;20.658;2022-09-28T05:21:37;9.40;99.90
40340;DHT22;26044;50.864;20.658;2022-09-28T05:24:04;9.50;99.90
40340;DHT22;26044;50.864;20.658;2022-09-28T05:26:33;9.50;99.90
40340;DHT22;26044;50.864;20.658;2022-09-28T05:29:00;9.60;99.90
40340;DHT22;26044;50.864;20.658;2022-09-28T05:31:26;9.60;99.90
40340;DHT22;26044;50.864;20.658;2022-09-28T05:33:53;9.60;99.90
40340;DHT22;26044;50.864;20.658;2022-09-28T05:36:20;9.70;99.90
40340;DHT22;26044;50.864;20.658;2022-09-28T05:38:47;9.80;99.90
40340;DHT22;26044;50.864;20.658;2022-09-28T05:41:14;9.80;99.90
40340;DHT22;26044;50.864;20.658;2022-09-28T05:43:41;9.80;99.90
40340;DHT22;26044;50.864;20.658;2022-09-28T05:46:09;9.80;99.90
40340;DHT22;26044;50.864;20.658;2022-09-28T05:48:36;9.90;99.90
40340;DHT22;26044;50.864;20.658;2022-09-28T05:51:03;9.90;99.90
40340;DHT22;26044;50.864;20.658;2022-09-28T05:53:30;9.90;99.90
40340;DHT22;26044;50.864;20.658;2022-09-28T05:55:57;9.90;99.90
40340;DHT22;26044;50.864;20.658;2022-09-28T05:58:24;10.00;99.90
40340;DHT22;26044;50.864;20.658;2022-09-28T06:00:55;10.00;99.90
40340;DHT22;26044;50.864;20.658;2022-09-28T06:03:22;10.00;99.90
40340;DHT22;26044;50.864;20.658;2022-09-28T06:05:49;10.00;99.90
40340;DHT22;26044;50.864;20.658;2022-09-28T06:08:16;10.10;99.90
40340;DHT22;26044;50.864;20.658;2022-09-28T06:10:44;10.10;99.90
40340;DHT22;26044;50.864;20.658;2022-09-28T06:13:11;10.20;99.90
40340;DHT22;26044;50.864;20.658;2022-09-28T06:15:41;10.20;99.90
40340;DHT22;26044;50.864;20.658;2022-09-28T06:18:12;10.30;99.90
40340;DHT22;26044;50.864;20.658;2022-09-28T06:20:42;10.30;99.90
40340;DHT22;26044;50.864;20.658;2022-09-28T06:23:12;10.30;99.90
40340;DHT22;26044;50.864;20.658;2022-09-28T06:25:40;10.30;99.90
40340;DHT22;26044;50.864;20.658;2022-09-28T06:28:09;10.30;99.90
40340;DHT22;26044;50.864;20.658;2022-09-28T06:30:37;10.40;99.90
40340;DHT22;26044;50.864;20.658;2022-09-28T06:33:06;10.40;99.90
40340;DHT22;26044;50.864;20.658;2022-09-28T06:35:34;10.40;99.90
40340;DHT22;26044;50.864;20.658;2022-09-28T06:38:02;10.40;99.90
40340;DHT22;26044;50.864;20.658;2022-09-28T06:40:29;10.40;99.90
40340;DHT22;26044;50.864;20.658;2022-09-28T06:43:01;10.40;99.90
40340;DHT22;26044;50.864;20.658;2022-09-28T06:45:28;10.50;99.90
40340;DHT22;26044;50.864;20.658;2022-09-28T06:47:58;10.60;99.90
40340;DHT22;26044;50.864;20.658;2022-09-28T06:50:26;10.60;99.90
40340;DHT22;26044;50.864;20.658;2022-09-28T06:52:54;10.70;99.90
40340;DHT22;26044;50.864;20.658;2022-09-28T06:55:22;10.70;99.90
40340;DHT22;26044;50.864;20.658;2022-09-28T06:58:03;10.80;99.90
40340;DHT22;26044;50.864;20.658;2022-09-28T07:00:31;10.80;99.90
40340;DHT22;26044;50.864;20.658;2022-09-28T07:03:01;10.80;99.90
40340;DHT22;26044;50.864;20.658;2022-09-28T07:05:29;10.80;99.90
40340;DHT22;26044;50.864;20.658;2022-09-28T07:07:57;10.80;99.90
40340;DHT22;26044;50.864;20.658;2022-09-28T07:10:25;10.80;99.90
40340;DHT22;26044;50.864;20.658;2022-09-28T07:12:58;10.80;99.90
40340;DHT22;26044;50.864;20.658;2022-09-28T07:15:28;10.80;99.90
40340;DHT22;26044;50.864;20.658;2022-09-28T07:17:56;10.80;99.90
40340;DHT22;26044;50.864;20.658;2022-09-28T07:20:32;10.90;99.90
40340;DHT22;26044;50.864;20.658;2022-09-28T07:23:12;10.90;99.90
40340;DHT22;26044;50.864;20.658;2022-09-28T07:25:45;10.90;99.90
40340;DHT22;26044;50.864;20.658;2022-09-28T07:28:13;10.90;99.90
40340;DHT22;26044;50.864;20.658;2022-09-28T07:30:40;10.90;99.90
40340;DHT22;26044;50.864;20.658;2022-09-28T07:33:11;10.90;99.90
40340;DHT22;26044;50.864;20.658;2022-09-28T07:35:39;10.90;99.90
40340;DHT22;26044;50.864;20.658;2022-09-28T07:38:09;10.90;99.90
40340;DHT22;26044;50.864;20.658;2022-09-28T07:40:37;10.90;99.90
40340;DHT22;26044;50.864;20.658;2022-09-28T07:43:37;10.90;99.90
40340;DHT22;26044;50.864;20.658;2022-09-28T07:46:08;10.90;99.90
40340;DHT22;26044;50.864;20.658;2022-09-28T07:48:39;11.00;99.90
40340;DHT22;26044;50.864;20.658;2022-09-28T07:51:07;11.00;99.90
40340;DHT22;26044;50.864;20.658;2022-09-28T07:53:34;11.10;99.90
40340;DHT22;26044;50.864;20.658;2022-09-28T07:56:02;11.20;99.90
40340;DHT22;26044;50.864;20.658;2022-09-28T07:58:34;11.30;99.90
40340;DHT22;26044;50.864;20.658;2022-09-28T08:01:09;11.40;99.90
40340;DHT22;26044;50.864;20.658;2022-09-28T08:03:37;11.40;99.90
40340;DHT22;26044;50.864;20.658;2022-09-28T08:06:06;11.40;99.90
40340;DHT22;26044;50.864;20.658;2022-09-28T08:08:35;11.50;99.90
40340;DHT22;26044;50.864;20.658;2022-09-28T08:11:06;11.50;99.90
40340;DHT22;26044;50.864;20.658;2022-09-28T08:13:33;11.50;99.90
40340;DHT22;26044;50.864;20.658;2022-09-28T08:16:01;11.50;99.90
40340;DHT22;26044;50.864;20.658;2022-09-28T08:18:28;11.50;99.90
40340;DHT22;26044;50.864;20.658;2022-09-28T08:20:55;11.60;99.90
40340;DHT22;26044;50.864;20.658;2022-09-28T08:23:41;11.70;99.90
40340;DHT22;26044;50.864;20.658;2022-09-28T08:26:08;11.90;99.90
40340;DHT22;26044;50.864;20.658;2022-09-28T08:28:41;12.10;99.90
40340;DHT22;26044;50.864;20.658;2022-09-28T08:31:09;12.10;99.90
40340;DHT22;26044;50.864;20.658;2022-09-28T08:33:36;12.20;99.90
40340;DHT22;26044;50.864;20.658;2022-09-28T08:36:04;12.40;99.90
40340;DHT22;26044;50.864;20.658;2022-09-28T08:38:33;12.50;99.90
40340;DHT22;26044;50.864;20.658;2022-09-28T08:41:08;12.50;99.90
40340;DHT22;26044;50.864;20.658;2022-09-28T08:43:59;12.30;99.90
40340;DHT22;26044;50.864;20.658;2022-09-28T08:46:36;12.30;99.90
40340;DHT22;26044;50.864;20.658;2022-09-28T08:49:19;12.60;99.90
40340;DHT22;26044;50.864;20.658;2022-09-28T08:52:17;12.70;99.90
40340;DHT22;26044;50.864;20.658;2022-09-28T08:54:53;12.90;99.90
40340;DHT22;26044;50.864;20.658;2022-09-28T09:00:35;13.00;99.90
40340;DHT22;26044;50.864;20.658;2022-09-28T09:03:14;13.00;99.90
40340;DHT22;26044;50.864;20.658;2022-09-28T09:08:36;13.10;99.90
40340;DHT22;26044;50.864;20.658;2022-09-28T09:11:33;13.30;99.90
40340;DHT22;26044;50.864;20.658;2022-09-28T09:22:16;13.30;99.90
40340;DHT22;26044;50.864;20.658;2022-09-28T09:24:50;13.10;99.90
40340;DHT22;26044;50.864;20.658;2022-09-28T09:27:33;13.10;99.90
40340;DHT22;26044;50.864;20.658;2022-09-28T09:30:06;13.20;99.90
40340;DHT22;26044;50.864;20.658;2022-09-28T09:32:54;13.20;99.90
40340;DHT22;26044;50.864;20.658;2022-09-28T09:38:30;13.00;99.90
40340;DHT22;26044;50.864;20.658;2022-09-28T09:41:11;13.00;99.90
40340;DHT22;26044;50.864;20.658;2022-09-28T09:52:32;13.10;99.90
40340;DHT22;26044;50.864;20.658;2022-09-28T09:55:18;13.00;99.90
40340;DHT22;26044;50.864;20.658;2022-09-28T09:58:10;12.90;99.90
40340;DHT22;26044;50.864;20.658;2022-09-28T10:00:48;12.80;99.90
40340;DHT22;26044;50.864;20.658;2022-09-28T10:03:20;12.70;99.90
40340;DHT22;26044;50.864;20.658;2022-09-28T10:05:55;12.60;99.90
40340;DHT22;26044;50.864;20.658;2022-09-28T10:08:25;12.40;99.90
40340;DHT22;26044;50.864;20.658;2022-09-28T10:11:14;12.40;99.90
40340;DHT22;26044;50.864;20.658;2022-09-28T10:13:42;12.60;99.90
40340;DHT22;26044;50.864;20.658;2022-09-28T10:16:10;12.70;99.90
40340;DHT22;26044;50.864;20.658;2022-09-28T10:18:37;13.00;99.90
40340;DHT22;26044;50.864;20.658;2022-09-28T10:21:05;13.30;99.90
40340;DHT22;26044;50.864;20.658;2022-09-28T10:23:35;13.70;99.90
40340;DHT22;26044;50.864;20.658;2022-09-28T10:26:11;14.10;99.90
40340;DHT22;26044;50.864;20.658;2022-09-28T10:29:00;14.70;99.90
40340;DHT22;26044;50.864;20.658;2022-09-28T10:31:46;14.90;99.90
40340;DHT22;26044;50.864;20.658;2022-09-28T10:34:17;14.70;99.90
40340;DHT22;26044;50.864;20.658;2022-09-28T10:36:56;14.90;99.90
40340;DHT22;26044;50.864;20.658;2022-09-28T10:39:36;15.30;99.90
40340;DHT22;26044;50.864;20.658;2022-09-28T10:42:08;15.20;99.90
40340;DHT22;26044;50.864;20.658;2022-09-28T10:44:49;14.80;99.90
40340;DHT22;26044;50.864;20.658;2022-09-28T10:47:19;14.40;99.90
40340;DHT22;26044;50.864;20.658;2022-09-28T10:49:52;14.60;99.90
40340;DHT22;26044;50.864;20.658;2022-09-28T10:52:40;14.60;99.90
40340;DHT22;26044;50.864;20.658;2022-09-28T10:55:28;14.50;99.90
40340;DHT22;26044;50.864;20.658;2022-09-28T10:57:56;14.30;99.90
40340;DHT22;26044;50.864;20.658;2022-09-28T11:02:56;14.00;99.90
40340;DHT22;26044;50.864;20.658;2022-09-28T11:05:24;14.00;99.90
40340;DHT22;26044;50.864;20.658;2022-09-28T11:07:57;14.00;99.90
40340;DHT22;26044;50.864;20.658;2022-09-28T11:10:28;14.00;99.90
40340;DHT22;26044;50.864;20.658;2022-09-28T11:12:56;13.90;99.90
40340;DHT22;26044;50.864;20.658;2022-09-28T11:15:30;13.80;99.90
40340;DHT22;26044;50.864;20.658;2022-09-28T11:18:19;13.60;99.90
40340;DHT22;26044;50.864;20.658;2022-09-28T11:20:48;13.50;99.90
40340;DHT22;26044;50.864;20.658;2022-09-28T11:23:21;13.60;99.90
40340;DHT22;26044;50.864;20.658;2022-09-28T11:26:06;13.60;99.90
40340;DHT22;26044;50.864;20.658;2022-09-28T11:28:36;13.70;99.90
40340;DHT22;26044;50.864;20.658;2022-09-28T11:31:05;13.90;99.90
40340;DHT22;26044;50.864;20.658;2022-09-28T11:33:34;13.90;99.90
40340;DHT22;26044;50.864;20.658;2022-09-28T11:39:10;14.00;99.90
40340;DHT22;26044;50.864;20.658;2022-09-28T11:42:00;14.10;99.90
40340;DHT22;26044;50.864;20.658;2022-09-28T11:44:46;14.10;99.90
40340;DHT22;26044;50.864;20.658;2022-09-28T11:53:02;14.10;99.90
40340;DHT22;26044;50.864;20.658;2022-09-28T11:55:42;14.30;99.90
40340;DHT22;26044;50.864;20.658;2022-09-28T11:58:32;14.40;99.90
40340;DHT22;26044;50.864;20.658;2022-09-28T12:01:12;14.40;99.90
40340;DHT22;26044;50.864;20.658;2022-09-28T12:03:49;14.50;99.90
40340;DHT22;26044;50.864;20.658;2022-09-28T12:06:21;14.50;99.90
40340;DHT22;26044;50.864;20.658;2022-09-28T12:09:05;14.70;99.90
40340;DHT22;26044;50.864;20.658;2022-09-28T12:11:39;14.60;99.90
40340;DHT22;26044;50.864;20.658;2022-09-28T12:14:19;14.70;99.90
40340;DHT22;26044;50.864;20.658;2022-09-28T12:17:02;14.70;99.60
40340;DHT22;26044;50.864;20.658;2022-09-28T12:19:38;14.70;99.90
40340;DHT22;26044;50.864;20.658;2022-09-28T12:22:19;14.80;98.40
40340;DHT22;26044;50.864;20.658;2022-09-28T12:24:51;14.90;99.90
40340;DHT22;26044;50.864;20.658;2022-09-28T12:27:31;15.00;99.90
40340;DHT22;26044;50.864;20.658;2022-09-28T12:33:20;15.10;99.90
40340;DHT22;26044;50.864;20.658;2022-09-28T12:36:13;15.10;99.90
40340;DHT22;26044;50.864;20.658;2022-09-28T12:45:34;15.10;99.40
40340;DHT22;26044;50.864;20.658;2022-09-28T12:48:15;15.00;99.10
40340;DHT22;26044;50.864;20.658;2022-09-28T12:54:31;15.00;99.10
40340;DHT22;26044;50.864;20.658;2022-09-28T12:57:31;15.00;99.90
40340;DHT22;26044;50.864;20.658;2022-09-28T13:00:05;15.00;99.90
40340;DHT22;26044;50.864;20.658;2022-09-28T13:05:59;15.00;99.90
40340;DHT22;26044;50.864;20.658;2022-09-28T13:09:00;14.90;99.90
40340;DHT22;26044;50.864;20.658;2022-09-28T13:11:42;14.90;99.90
40340;DHT22;26044;50.864;20.658;2022-09-28T13:17:00;14.90;99.90
40340;DHT22;26044;50.864;20.658;2022-09-28T13:22:43;14.90;99.90
40340;DHT22;26044;50.864;20.658;2022-09-28T13:25:19;14.90;99.90
40340;DHT22;26044;50.864;20.658;2022-09-28T13:27:55;14.90;99.90
40340;DHT22;26044;50.864;20.658;2022-09-28T13:30:31;14.90;99.90
40340;DHT22;26044;50.864;20.658;2022-09-28T13:36:39;14.80;99.90
40340;DHT22;26044;50.864;20.658;2022-09-28T13:39:59;14.90;99.90
40340;DHT22;26044;50.864;20.658;2022-09-28T13:42:50;14.80;99.90
40340;DHT22;26044;50.864;20.658;2022-09-28T13:45:32;14.80;99.90
40340;DHT22;26044;50.864;20.658;2022-09-28T13:56:00;14.90;99.90
40340;DHT22;26044;50.864;20.658;2022-09-28T14:02:27;14.80;99.90
40340;DHT22;26044;50.864;20.658;2022-09-28T14:04:59;14.70;99.90
40340;DHT22;26044;50.864;20.658;2022-09-28T14:07:57;14.70;99.90
40340;DHT22;26044;50.864;20.658;2022-09-28T14:10:48;14.80;99.90
40340;DHT22;26044;50.864;20.658;2022-09-28T14:16:30;14.70;99.60
40340;DHT22;26044;50.864;20.658;2022-09-28T14:19:31;14.70;99.90
40340;DHT22;26044;50.864;20.658;2022-09-28T14:22:28;14.70;99.90
40340;DHT22;26044;50.864;20.658;2022-09-28T14:25:08;14.70;99.90
40340;DHT22;26044;50.864;20.658;2022-09-28T14:32:50;14.60;99.90
40340;DHT22;26044;50.864;20.658;2022-09-28T14:35:39;14.60;99.90
40340;DHT22;26044;50.864;20.658;2022-09-28T14:38:15;14.60;99.90
40340;DHT22;26044;50.864;20.658;2022-09-28T14:41:09;14.60;99.90
40340;DHT22;26044;50.864;20.658;2022-09-28T14:53:55;14.30;99.90
40340;DHT22;26044;50.864;20.658;2022-09-28T14:56:27;14.20;99.90
40340;DHT22;26044;50.864;20.658;2022-09-28T14:58:59;14.10;99.90
40340;DHT22;26044;50.864;20.658;2022-09-28T15:01:26;14.10;99.90
40340;DHT22;26044;50.864;20.658;2022-09-28T15:04:01;14.00;99.90
40340;DHT22;26044;50.864;20.658;2022-09-28T15:06:50;13.90;99.90
40340;DHT22;26044;50.864;20.658;2022-09-28T15:09:27;13.90;99.90
40340;DHT22;26044;50.864;20.658;2022-09-28T15:12:04;13.90;99.90
40340;DHT22;26044;50.864;20.658;2022-09-28T15:14:47;13.80;99.90
40340;DHT22;26044;50.864;20.658;2022-09-28T15:17:27;13.80;99.90
40340;DHT22;26044;50.864;20.658;2022-09-28T15:22:48;13.70;99.90
40340;DHT22;26044;50.864;20.658;2022-09-28T15:25:18;13.70;99.90
40340;DHT22;26044;50.864;20.658;2022-09-28T15:27:56;13.70;99.90
40340;DHT22;26044;50.864;20.658;2022-09-28T15:30:34;13.70;99.90
40340;DHT22;26044;50.864;20.658;2022-09-28T15:33:02;13.60;99.90
40340;DHT22;26044;50.864;20.658;2022-09-28T15:36:03;13.50;99.90
40340;DHT22;26044;50.864;20.658;2022-09-28T15:38:31;13.50;99.90
40340;DHT22;26044;50.864;20.658;2022-09-28T15:41:04;13.40;99.90
40340;DHT22;26044;50.864;20.658;2022-09-28T15:43:33;13.40;99.90
40340;DHT22;26044;50.864;20.658;2022-09-28T15:46:06;13.40;99.90
40340;DHT22;26044;50.864;20.658;2022-09-28T15:48:47;13.40;99.90
40340;DHT22;26044;50.864;20.658;2022-09-28T15:51:18;13.30;99.90
40340;DHT22;26044;50.864;20.658;2022-09-28T15:53:52;13.20;99.90
40340;DHT22;26044;50.864;20.658;2022-09-28T15:56:21;13.20;99.90
40340;DHT22;26044;50.864;20.658;2022-09-28T15:59:28;13.10;99.90
40340;DHT22;26044;50.864;20.658;2022-09-28T16:02:15;13.10;99.90
40340;DHT22;26044;50.864;20.658;2022-09-28T16:04:50;13.00;99.90
40340;DHT22;26044;50.864;20.658;2022-09-28T16:17:41;12.70;99.90
40340;DHT22;26044;50.864;20.658;2022-09-28T16:20:22;12.70;99.90
40340;DHT22;26044;50.864;20.658;2022-09-28T16:22:50;12.70;99.90
40340;DHT22;26044;50.864;20.658;2022-09-28T16:25:22;12.70;99.90
40340;DHT22;26044;50.864;20.658;2022-09-28T16:27:52;12.60;99.90
40340;DHT22;26044;50.864;20.658;2022-09-28T16:30:24;12.60;99.90
40340;DHT22;26044;50.864;20.658;2022-09-28T16:32:56;12.50;99.90
40340;DHT22;26044;50.864;20.658;2022-09-28T16:35:24;12.60;99.90
40340;DHT22;26044;50.864;20.658;2022-09-28T16:38:11;12.50;99.90
40340;DHT22;26044;50.864;20.658;2022-09-28T16:40:44;12.50;99.90
40340;DHT22;26044;50.864;20.658;2022-09-28T16:43:25;12.50;99.90
40340;DHT22;26044;50.864;20.658;2022-09-28T16:46:00;12.40;99.90
40340;DHT22;26044;50.864;20.658;2022-09-28T16:48:32;12.40;99.90
40340;DHT22;26044;50.864;20.658;2022-09-28T16:50:59;12.40;99.90
40340;DHT22;26044;50.864;20.658;2022-09-28T16:53:26;12.40;99.90
40340;DHT22;26044;50.864;20.658;2022-09-28T16:56:12;12.30;99.90
40340;DHT22;26044;50.864;20.658;2022-09-28T16:58:39;12.30;99.90
40340;DHT22;26044;50.864;20.658;2022-09-28T17:01:08;12.30;99.90
40340;DHT22;26044;50.864;20.658;2022-09-28T17:03:36;12.30;99.90
40340;DHT22;26044;50.864;20.658;2022-09-28T17:06:04;12.30;99.90
40340;DHT22;26044;50.864;20.658;2022-09-28T17:08:34;12.30;99.90
40340;DHT22;26044;50.864;20.658;2022-09-28T17:11:01;12.20;99.90
40340;DHT22;26044;50.864;20.658;2022-09-28T17:13:44;12.30;99.90
40340;DHT22;26044;50.864;20.658;2022-09-28T17:16:19;12.20;99.90
40340;DHT22;26044;50.864;20.658;2022-09-28T17:19:24;12.20;99.90
40340;DHT22;26044;50.864;20.658;2022-09-28T17:21:51;12.20;99.90
40340;DHT22;26044;50.864;20.658;2022-09-28T17:24:19;12.30;99.90
40340;DHT22;26044;50.864;20.658;2022-09-28T17:26:48;12.30;99.90
40340;DHT22;26044;50.864;20.658;2022-09-28T17:29:16;12.30;99.90
40340;DHT22;26044;50.864;20.658;2022-09-28T17:31:45;12.30;99.90
40340;DHT22;26044;50.864;20.658;2022-09-28T17:34:13;12.30;99.90
40340;DHT22;26044;50.864;20.658;2022-09-28T17:36:42;12.30;99.90
40340;DHT22;26044;50.864;20.658;2022-09-28T17:39:11;12.20;99.90
40340;DHT22;26044;50.864;20.658;2022-09-28T17:41:38;12.20;99.90
40340;DHT22;26044;50.864;20.658;2022-09-28T17:44:06;12.20;99.90
40340;DHT22;26044;50.864;20.658;2022-09-28T17:46:37;12.20;99.90
40340;DHT22;26044;50.864;20.658;2022-09-28T17:49:08;12.20;99.90
40340;DHT22;26044;50.864;20.658;2022-09-28T17:51:36;12.20;99.90
40340;DHT22;26044;50.864;20.658;2022-09-28T17:54:03;12.20;99.90
40340;DHT22;26044;50.864;20.658;2022-09-28T17:56:32;12.20;99.90
40340;DHT22;26044;50.864;20.658;2022-09-28T17:59:01;12.20;99.90